Main page
METAR-TAF:

METAR-TAF

Airports :

Esfahān, Iran

Isfahan International Airport

latitude: 32-28N, longitude: 051-43E, elevation: 1590 m

Current weather observation

The report was made 17 minutes ago, at 12:00 UTC
Wind 4 kt from the South/Southwest
Temperature 38°C
Humidity 9%
Pressure 1014 hPa
Visibility 10 km or more
Few clouds at a height of 4000 ft

METAR: OIFM 261200Z 21004KT 9999 FEW040 38/M00 Q1013 A2993 NOSIG

Time: 16:47 (12:17 UTC)


TAF: missing

Weather observations and forecasts of more than 4000 airports (METAR and TAF reports).

The available stations are represented by yellow and red dots on the map.

Hover mouse over dot to see the name of the station.

Then click to see weather observations and forecasts.

To change the map : click on the green buttons with a black cross to zoom in, on the green button with a dash to zoom out, or on the green arrows for adjacent maps.


METAR-TAF: